Terminal Aerodrome Forecast
Issued by NWS

Home | Current Version | Previous Version | Text Only | Print | Product List | Glossary On
Versions: 1 2 3 4 5 6 7 8 9 10 11 12 13 14 15 16 17 18 19 20 21 22 23 24 25 26 27 28 29 30 31 32 33
000
FTAK31 PANC 302330
TAFADQ
TAF
PADQ 302330Z 3100/3124 10005KT P6SM FEW015 SCT025 OVC045
     FM310600 30004KT P6SM SCT050 BKN080
     FM312000 VRB05KT P6SM FEW050 SCT080=

USA.gov is the U.S. government's official web portal to all federal, state and local government web resources and services.